Lawson Army Air Field (Fort Benning)
KLSF : rendu visible

Aérodrome :











RETROUVEZ-NOUS SUR...

 
LOGIN :

S'inscrire | Disclaimer

   EN    FR    IT 

 









Légende :    VFR   VFR Marginal   IFR   IFR Intensif   IFR Très Intensif
Visi : 
Plafond : 
>= 8 km
>= 3000ft
5 à 8 km
1000 à 3000 ft
1500m à 5 km
500 à 1000 ft
800 à 1500m
200 à 500 ft
< 800m
< 200 ft
Symboles :   Orages  Brouillard  Fortes neiges  Fortes précipitations  Vent > 20 kt







- Altitude de l'aérodrome : 232 ft


KLSF - Lawson Army Air Field (Fort Benning)

DERNIER METAR :
  • 201356Z AUTO 23007KT 10SM BKN029 BKN034 10/08 A2982 RMK AO2 CIG 024 RWY33 SLP103 T01010082 $

METARs EXPIRÉS :
  • 201346Z AUTO 22007KT 10SM FEW021 BKN030 OVC035 10/08 A2982 RMK AO2 SLP103 $
  • 201331Z AUTO 22008KT 10SM SCT020 OVC030 10/08 A2981 RMK AO2 SLP100 $
  • 201311Z AUTO 23008KT 10SM SCT015 BKN021 OVC033 09/08 A2981 RMK AO2 CIG 016V021 CIG 016 RWY33 SLP100 $
  • 201301Z AUTO 22012KT 10SM BKN016 BKN022 OVC033 09/09 A2981 RMK AO2 SLP100 $
  • 201216Z AUTO 21006KT 10SM BKN014 09/09 A2979 RMK AO2 CIG 014V042 BKN V SCT SLP093 $
  • 201156Z AUTO 22006KT 10SM FEW026 08/08 A2979 RMK AO2 DZB12E22 SLP093 P0000 60000 70022 T00840084 10090 20082 53010 $
  • 201122Z AUTO 22006KT 10SM SCT024 SCT044 BKN060 08/08 A2977 RMK AO2 DZB12E22 SLP086 $
  • 201117Z AUTO 23006KT 10SM -DZ FEW017 SCT024 BKN044 BKN060 08/08 A2977 RMK AO2 DZB12 SLP086 $

TAF AMD TAF KLSF
Valide du 20 à 04h jusqu'au 21 à 07h UTC


200452Z 2004/2107 27009KT 9999 SCT040 QNH2976INS
BECMG 2014/2015 25020G25KT 9999 BKN030 QNH2980INS
BECMG 2022/2023 28020G25KT 9999 SCT030 QNH2983INS
BECMG 2023/2024 30012G18KT 9999 FEW050 QNH2985INS TX17/2019Z TN07/2011Z
FIR KZTL / Amérique du Nord



MET'MAP, la Météo Aéronautique d'un coup d'oeil ! - Copyright ORBIFLY Décembre 2007 - Disclaimer

ORBIFLY MET'MAP TEAM :

Programmation & Développement : Alexandra Zaïnal
Conception & Développement : Baudouin d'Aumeries
Co-Programmation & Développement : Marc-Olivier Méhu
Soutien technique & logistique : Manuel Goepfert

Contact : metmap@orbifly.com




SOURCES & CREDITS :

   NOAA       Earth
Advisory